sensor_id;sensor_type;location;lat;lon;timestamp;P1;durP1;ratioP1;P2;durP2;ratioP2
49440;SDS011;35317;51.978;6.296;2023-04-24T00:00:13;7.53;;;4.15;;
49440;SDS011;35317;51.978;6.296;2023-04-24T00:05:15;7.18;;;4.28;;
49440;SDS011;35317;51.978;6.296;2023-04-24T00:10:17;6.95;;;4.50;;
49440;SDS011;35317;51.978;6.296;2023-04-24T00:15:18;7.57;;;4.60;;
49440;SDS011;35317;51.978;6.296;2023-04-24T00:20:19;7.78;;;4.80;;
49440;SDS011;35317;51.978;6.296;2023-04-24T00:25:21;7.72;;;5.18;;
49440;SDS011;35317;51.978;6.296;2023-04-24T00:30:22;9.68;;;5.00;;
49440;SDS011;35317;51.978;6.296;2023-04-24T00:35:23;9.30;;;5.20;;
49440;SDS011;35317;51.978;6.296;2023-04-24T00:40:24;7.47;;;4.78;;
49440;SDS011;35317;51.978;6.296;2023-04-24T00:45:24;10.23;;;5.25;;
49440;SDS011;35317;51.978;6.296;2023-04-24T00:50:25;7.00;;;4.78;;
49440;SDS011;35317;51.978;6.296;2023-04-24T00:55:26;6.95;;;4.47;;
49440;SDS011;35317;51.978;6.296;2023-04-24T01:00:27;5.05;;;3.47;;
49440;SDS011;35317;51.978;6.296;2023-04-24T01:05:28;5.97;;;3.60;;
49440;SDS011;35317;51.978;6.296;2023-04-24T01:10:29;4.68;;;3.35;;
49440;SDS011;35317;51.978;6.296;2023-04-24T01:15:32;5.85;;;3.40;;
49440;SDS011;35317;51.978;6.296;2023-04-24T01:20:32;6.28;;;3.42;;
49440;SDS011;35317;51.978;6.296;2023-04-24T01:25:35;5.90;;;3.38;;
49440;SDS011;35317;51.978;6.296;2023-04-24T01:30:36;6.25;;;3.85;;
49440;SDS011;35317;51.978;6.296;2023-04-24T01:35:37;7.30;;;4.07;;
49440;SDS011;35317;51.978;6.296;2023-04-24T01:40:38;6.22;;;3.85;;
49440;SDS011;35317;51.978;6.296;2023-04-24T01:45:39;7.00;;;4.25;;
49440;SDS011;35317;51.978;6.296;2023-04-24T01:50:40;7.32;;;4.30;;
49440;SDS011;35317;51.978;6.296;2023-04-24T01:55:41;8.18;;;4.95;;
49440;SDS011;35317;51.978;6.296;2023-04-24T02:00:41;8.50;;;5.00;;
49440;SDS011;35317;51.978;6.296;2023-04-24T02:05:45;8.60;;;4.50;;
49440;SDS011;35317;51.978;6.296;2023-04-24T02:10:46;6.05;;;4.07;;
49440;SDS011;35317;51.978;6.296;2023-04-24T02:15:47;9.48;;;4.93;;
49440;SDS011;35317;51.978;6.296;2023-04-24T02:20:48;7.30;;;4.63;;
49440;SDS011;35317;51.978;6.296;2023-04-24T02:25:48;13.48;;;6.50;;
49440;SDS011;35317;51.978;6.296;2023-04-24T02:30:49;10.95;;;5.88;;
49440;SDS011;35317;51.978;6.296;2023-04-24T02:35:51;8.90;;;5.43;;
49440;SDS011;35317;51.978;6.296;2023-04-24T02:40:51;10.25;;;6.40;;
49440;SDS011;35317;51.978;6.296;2023-04-24T02:45:52;9.35;;;5.15;;
49440;SDS011;35317;51.978;6.296;2023-04-24T02:50:53;7.45;;;4.35;;
49440;SDS011;35317;51.978;6.296;2023-04-24T02:55:54;5.80;;;4.40;;
49440;SDS011;35317;51.978;6.296;2023-04-24T03:00:54;7.05;;;4.28;;
49440;SDS011;35317;51.978;6.296;2023-04-24T03:05:56;9.07;;;5.15;;
49440;SDS011;35317;51.978;6.296;2023-04-24T03:10:57;10.52;;;5.25;;
49440;SDS011;35317;51.978;6.296;2023-04-24T03:15:58;9.50;;;5.78;;
49440;SDS011;35317;51.978;6.296;2023-04-24T03:20:59;10.80;;;7.20;;
49440;SDS011;35317;51.978;6.296;2023-04-24T03:26:01;12.65;;;7.53;;
49440;SDS011;35317;51.978;6.296;2023-04-24T03:31:02;12.40;;;7.82;;
49440;SDS011;35317;51.978;6.296;2023-04-24T03:36:03;13.02;;;7.32;;
49440;SDS011;35317;51.978;6.296;2023-04-24T03:41:05;16.13;;;8.27;;
49440;SDS011;35317;51.978;6.296;2023-04-24T03:46:05;14.93;;;8.57;;
49440;SDS011;35317;51.978;6.296;2023-04-24T03:51:09;17.93;;;9.40;;
49440;SDS011;35317;51.978;6.296;2023-04-24T03:56:09;17.83;;;10.30;;
49440;SDS011;35317;51.978;6.296;2023-04-24T04:01:10;15.52;;;9.32;;
49440;SDS011;35317;51.978;6.296;2023-04-24T04:06:12;15.80;;;8.98;;
49440;SDS011;35317;51.978;6.296;2023-04-24T04:11:13;18.63;;;9.23;;
49440;SDS011;35317;51.978;6.296;2023-04-24T04:16:14;18.02;;;9.25;;
49440;SDS011;35317;51.978;6.296;2023-04-24T04:21:16;17.13;;;9.27;;
49440;SDS011;35317;51.978;6.296;2023-04-24T04:26:17;17.17;;;8.48;;
49440;SDS011;35317;51.978;6.296;2023-04-24T04:31:19;19.17;;;9.57;;
49440;SDS011;35317;51.978;6.296;2023-04-24T04:36:21;16.70;;;8.80;;
49440;SDS011;35317;51.978;6.296;2023-04-24T04:41:21;16.55;;;8.88;;
49440;SDS011;35317;51.978;6.296;2023-04-24T04:46:22;18.10;;;9.55;;
49440;SDS011;35317;51.978;6.296;2023-04-24T04:51:26;14.02;;;7.95;;
49440;SDS011;35317;51.978;6.296;2023-04-24T04:56:27;17.48;;;8.80;;
49440;SDS011;35317;51.978;6.296;2023-04-24T05:01:27;15.57;;;8.98;;
49440;SDS011;35317;51.978;6.296;2023-04-24T05:06:28;17.80;;;8.80;;
49440;SDS011;35317;51.978;6.296;2023-04-24T05:11:31;13.25;;;7.35;;
49440;SDS011;35317;51.978;6.296;2023-04-24T05:16:31;16.25;;;8.45;;
49440;SDS011;35317;51.978;6.296;2023-04-24T05:21:32;17.65;;;8.27;;
49440;SDS011;35317;51.978;6.296;2023-04-24T05:26:33;15.43;;;8.55;;
49440;SDS011;35317;51.978;6.296;2023-04-24T05:31:34;13.90;;;7.82;;
49440;SDS011;35317;51.978;6.296;2023-04-24T05:36:34;17.05;;;8.10;;
49440;SDS011;35317;51.978;6.296;2023-04-24T05:41:35;13.50;;;7.70;;
49440;SDS011;35317;51.978;6.296;2023-04-24T05:46:36;11.52;;;6.85;;
49440;SDS011;35317;51.978;6.296;2023-04-24T05:51:37;11.63;;;6.88;;
49440;SDS011;35317;51.978;6.296;2023-04-24T05:56:39;10.55;;;6.47;;
49440;SDS011;35317;51.978;6.296;2023-04-24T06:01:40;11.68;;;6.28;;
49440;SDS011;35317;51.978;6.296;2023-04-24T06:06:41;10.85;;;6.57;;
49440;SDS011;35317;51.978;6.296;2023-04-24T06:11:42;11.57;;;5.70;;
49440;SDS011;35317;51.978;6.296;2023-04-24T06:16:43;9.00;;;5.68;;
49440;SDS011;35317;51.978;6.296;2023-04-24T06:21:44;8.23;;;4.82;;
49440;SDS011;35317;51.978;6.296;2023-04-24T06:26:45;9.00;;;5.05;;
49440;SDS011;35317;51.978;6.296;2023-04-24T06:31:46;7.93;;;4.85;;
49440;SDS011;35317;51.978;6.296;2023-04-24T06:36:46;10.18;;;5.65;;
49440;SDS011;35317;51.978;6.296;2023-04-24T06:41:47;8.15;;;4.85;;
49440;SDS011;35317;51.978;6.296;2023-04-24T06:46:48;10.18;;;4.85;;
49440;SDS011;35317;51.978;6.296;2023-04-24T06:51:49;10.18;;;5.30;;
49440;SDS011;35317;51.978;6.296;2023-04-24T06:56:50;8.00;;;4.88;;
49440;SDS011;35317;51.978;6.296;2023-04-24T07:01:52;8.55;;;5.35;;
49440;SDS011;35317;51.978;6.296;2023-04-24T07:06:52;8.75;;;5.18;;
49440;SDS011;35317;51.978;6.296;2023-04-24T07:11:57;9.60;;;5.85;;
49440;SDS011;35317;51.978;6.296;2023-04-24T07:16:58;8.52;;;4.97;;
49440;SDS011;35317;51.978;6.296;2023-04-24T07:21:59;8.05;;;4.72;;
49440;SDS011;35317;51.978;6.296;2023-04-24T07:27:00;8.93;;;4.70;;
49440;SDS011;35317;51.978;6.296;2023-04-24T07:32:03;6.87;;;4.00;;
49440;SDS011;35317;51.978;6.296;2023-04-24T07:37:04;4.50;;;2.80;;
49440;SDS011;35317;51.978;6.296;2023-04-24T07:42:05;6.88;;;2.85;;
49440;SDS011;35317;51.978;6.296;2023-04-24T07:47:06;5.85;;;3.35;;
49440;SDS011;35317;51.978;6.296;2023-04-24T07:52:06;5.82;;;3.25;;
49440;SDS011;35317;51.978;6.296;2023-04-24T07:57:07;6.05;;;3.72;;
49440;SDS011;35317;51.978;6.296;2023-04-24T08:02:08;5.15;;;3.40;;
49440;SDS011;35317;51.978;6.296;2023-04-24T08:07:09;4.57;;;3.03;;
49440;SDS011;35317;51.978;6.296;2023-04-24T08:12:12;4.50;;;2.65;;
49440;SDS011;35317;51.978;6.296;2023-04-24T08:17:13;4.15;;;2.13;;
49440;SDS011;35317;51.978;6.296;2023-04-24T08:22:15;2.15;;;1.42;;
49440;SDS011;35317;51.978;6.296;2023-04-24T08:27:16;2.45;;;1.30;;
49440;SDS011;35317;51.978;6.296;2023-04-24T08:32:16;1.23;;;0.80;;
49440;SDS011;35317;51.978;6.296;2023-04-24T08:37:17;1.50;;;1.08;;
49440;SDS011;35317;51.978;6.296;2023-04-24T08:42:18;1.63;;;1.10;;
49440;SDS011;35317;51.978;6.296;2023-04-24T08:47:20;4.80;;;2.42;;
49440;SDS011;35317;51.978;6.296;2023-04-24T08:52:25;6.13;;;2.17;;
49440;SDS011;35317;51.978;6.296;2023-04-24T08:57:26;4.35;;;2.55;;
49440;SDS011;35317;51.978;6.296;2023-04-24T09:02:27;5.30;;;3.08;;
49440;SDS011;35317;51.978;6.296;2023-04-24T09:07:29;6.13;;;3.15;;
49440;SDS011;35317;51.978;6.296;2023-04-24T09:12:32;5.18;;;2.70;;
49440;SDS011;35317;51.978;6.296;2023-04-24T09:17:34;5.22;;;3.28;;
49440;SDS011;35317;51.978;6.296;2023-04-24T09:22:36;4.82;;;3.15;;
49440;SDS011;35317;51.978;6.296;2023-04-24T09:27:37;4.65;;;2.67;;
49440;SDS011;35317;51.978;6.296;2023-04-24T09:32:45;9.32;;;4.28;;
49440;SDS011;35317;51.978;6.296;2023-04-24T09:37:46;5.72;;;3.72;;
49440;SDS011;35317;51.978;6.296;2023-04-24T09:42:53;3.90;;;2.45;;
49440;SDS011;35317;51.978;6.296;2023-04-24T09:47:56;2.53;;;1.80;;
49440;SDS011;35317;51.978;6.296;2023-04-24T09:53:06;3.35;;;2.15;;
49440;SDS011;35317;51.978;6.296;2023-04-24T09:58:08;2.95;;;1.83;;
49440;SDS011;35317;51.978;6.296;2023-04-24T10:03:09;3.30;;;1.92;;
49440;SDS011;35317;51.978;6.296;2023-04-24T10:08:11;4.07;;;2.67;;
49440;SDS011;35317;51.978;6.296;2023-04-24T10:13:13;4.07;;;2.30;;
49440;SDS011;35317;51.978;6.296;2023-04-24T10:18:18;3.63;;;2.00;;
49440;SDS011;35317;51.978;6.296;2023-04-24T10:23:21;4.70;;;2.07;;
49440;SDS011;35317;51.978;6.296;2023-04-24T10:28:23;4.18;;;2.10;;
49440;SDS011;35317;51.978;6.296;2023-04-24T10:33:26;6.45;;;1.85;;
49440;SDS011;35317;51.978;6.296;2023-04-24T10:38:27;8.43;;;2.22;;
49440;SDS011;35317;51.978;6.296;2023-04-24T10:43:29;2.13;;;1.60;;
49440;SDS011;35317;51.978;6.296;2023-04-24T10:48:31;4.25;;;2.00;;
49440;SDS011;35317;51.978;6.296;2023-04-24T10:53:42;7.65;;;1.80;;
49440;SDS011;35317;51.978;6.296;2023-04-24T10:58:44;6.13;;;2.50;;
49440;SDS011;35317;51.978;6.296;2023-04-24T11:03:57;4.65;;;1.70;;
49440;SDS011;35317;51.978;6.296;2023-04-24T11:09:11;5.70;;;2.05;;
49440;SDS011;35317;51.978;6.296;2023-04-24T11:14:16;5.88;;;1.67;;
49440;SDS011;35317;51.978;6.296;2023-04-24T11:19:26;3.85;;;1.55;;
49440;SDS011;35317;51.978;6.296;2023-04-24T11:35:04;7.93;;;1.50;;
49440;SDS011;35317;51.978;6.296;2023-04-24T11:40:08;2.67;;;1.13;;
49440;SDS011;35317;51.978;6.296;2023-04-24T11:45:11;3.65;;;1.65;;
49440;SDS011;35317;51.978;6.296;2023-04-24T11:50:14;1.55;;;0.75;;
49440;SDS011;35317;51.978;6.296;2023-04-24T12:00:19;1.15;;;0.73;;
49440;SDS011;35317;51.978;6.296;2023-04-24T12:05:26;1.55;;;0.60;;
49440;SDS011;35317;51.978;6.296;2023-04-24T12:10:30;2.13;;;0.80;;
49440;SDS011;35317;51.978;6.296;2023-04-24T12:15:32;2.58;;;0.93;;
49440;SDS011;35317;51.978;6.296;2023-04-24T12:20:33;2.70;;;0.60;;
49440;SDS011;35317;51.978;6.296;2023-04-24T12:25:36;0.75;;;0.63;;
49440;SDS011;35317;51.978;6.296;2023-04-24T12:36:32;1.60;;;0.50;;
49440;SDS011;35317;51.978;6.296;2023-04-24T12:41:57;0.75;;;0.30;;
49440;SDS011;35317;51.978;6.296;2023-04-24T12:47:03;0.60;;;0.40;;
49440;SDS011;35317;51.978;6.296;2023-04-24T12:52:05;3.60;;;0.70;;
49440;SDS011;35317;51.978;6.296;2023-04-24T12:57:08;2.42;;;0.70;;
49440;SDS011;35317;51.978;6.296;2023-04-24T13:02:09;1.45;;;0.50;;
49440;SDS011;35317;51.978;6.296;2023-04-24T13:07:11;1.30;;;0.60;;
49440;SDS011;35317;51.978;6.296;2023-04-24T13:12:14;0.30;;;0.30;;
49440;SDS011;35317;51.978;6.296;2023-04-24T13:17:15;2.15;;;0.70;;
49440;SDS011;35317;51.978;6.296;2023-04-24T13:22:19;3.07;;;0.40;;
49440;SDS011;35317;51.978;6.296;2023-04-24T13:27:24;1.38;;;0.50;;
49440;SDS011;35317;51.978;6.296;2023-04-24T13:32:26;2.03;;;0.77;;
49440;SDS011;35317;51.978;6.296;2023-04-24T13:49:58;1.50;;;0.50;;
49440;SDS011;35317;51.978;6.296;2023-04-24T14:00:39;2.38;;;0.60;;
49440;SDS011;35317;51.978;6.296;2023-04-24T14:05:42;1.42;;;0.50;;
49440;SDS011;35317;51.978;6.296;2023-04-24T14:10:47;1.10;;;0.70;;
49440;SDS011;35317;51.978;6.296;2023-04-24T14:20:48;3.00;;;0.90;;
49440;SDS011;35317;51.978;6.296;2023-04-24T14:25:52;2.08;;;0.85;;
49440;SDS011;35317;51.978;6.296;2023-04-24T14:30:53;1.58;;;0.63;;
49440;SDS011;35317;51.978;6.296;2023-04-24T14:35:54;3.15;;;1.25;;
49440;SDS011;35317;51.978;6.296;2023-04-24T14:40:55;4.22;;;0.80;;
49440;SDS011;35317;51.978;6.296;2023-04-24T14:45:56;1.55;;;0.80;;
49440;SDS011;35317;51.978;6.296;2023-04-24T14:56:26;3.53;;;0.95;;
49440;SDS011;35317;51.978;6.296;2023-04-24T15:01:27;2.72;;;0.82;;
49440;SDS011;35317;51.978;6.296;2023-04-24T15:06:29;4.28;;;1.30;;
49440;SDS011;35317;51.978;6.296;2023-04-24T15:11:33;3.25;;;0.95;;
49440;SDS011;35317;51.978;6.296;2023-04-24T15:16:33;2.67;;;0.75;;
49440;SDS011;35317;51.978;6.296;2023-04-24T15:21:35;1.55;;;0.70;;
49440;SDS011;35317;51.978;6.296;2023-04-24T15:26:37;1.67;;;1.00;;
49440;SDS011;35317;51.978;6.296;2023-04-24T15:31:40;3.35;;;1.25;;
49440;SDS011;35317;51.978;6.296;2023-04-24T15:36:41;4.13;;;1.10;;
49440;SDS011;35317;51.978;6.296;2023-04-24T15:41:42;4.05;;;0.98;;
49440;SDS011;35317;51.978;6.296;2023-04-24T15:46:43;4.82;;;0.90;;
49440;SDS011;35317;51.978;6.296;2023-04-24T15:51:44;2.13;;;0.90;;
49440;SDS011;35317;51.978;6.296;2023-04-24T15:56:44;3.63;;;1.00;;
49440;SDS011;35317;51.978;6.296;2023-04-24T16:01:45;2.78;;;1.02;;
49440;SDS011;35317;51.978;6.296;2023-04-24T16:06:46;4.57;;;1.27;;
49440;SDS011;35317;51.978;6.296;2023-04-24T16:11:47;3.13;;;1.27;;
49440;SDS011;35317;51.978;6.296;2023-04-24T16:16:48;5.90;;;1.15;;
49440;SDS011;35317;51.978;6.296;2023-04-24T16:21:50;1.38;;;1.10;;
49440;SDS011;35317;51.978;6.296;2023-04-24T16:26:53;3.63;;;0.83;;
49440;SDS011;35317;51.978;6.296;2023-04-24T16:31:55;3.70;;;1.27;;
49440;SDS011;35317;51.978;6.296;2023-04-24T16:36:56;4.10;;;0.95;;
49440;SDS011;35317;51.978;6.296;2023-04-24T16:41:56;3.20;;;1.20;;
49440;SDS011;35317;51.978;6.296;2023-04-24T16:46:57;1.20;;;0.82;;
49440;SDS011;35317;51.978;6.296;2023-04-24T16:51:58;2.40;;;1.02;;
49440;SDS011;35317;51.978;6.296;2023-04-24T16:57:00;1.60;;;1.00;;
49440;SDS011;35317;51.978;6.296;2023-04-24T17:02:02;2.88;;;1.23;;
49440;SDS011;35317;51.978;6.296;2023-04-24T17:07:03;4.20;;;1.27;;
49440;SDS011;35317;51.978;6.296;2023-04-24T17:12:03;8.43;;;1.88;;
49440;SDS011;35317;51.978;6.296;2023-04-24T17:17:04;5.18;;;1.70;;
49440;SDS011;35317;51.978;6.296;2023-04-24T17:22:05;2.88;;;1.25;;
49440;SDS011;35317;51.978;6.296;2023-04-24T17:27:06;5.88;;;1.60;;
49440;SDS011;35317;51.978;6.296;2023-04-24T17:32:07;1.98;;;1.15;;
49440;SDS011;35317;51.978;6.296;2023-04-24T17:37:08;2.95;;;1.50;;
49440;SDS011;35317;51.978;6.296;2023-04-24T17:42:09;3.60;;;1.38;;
49440;SDS011;35317;51.978;6.296;2023-04-24T17:47:10;5.32;;;1.50;;
49440;SDS011;35317;51.978;6.296;2023-04-24T17:52:11;4.30;;;1.70;;
49440;SDS011;35317;51.978;6.296;2023-04-24T17:57:13;3.13;;;1.35;;
49440;SDS011;35317;51.978;6.296;2023-04-24T18:02:14;4.15;;;1.25;;
49440;SDS011;35317;51.978;6.296;2023-04-24T18:07:15;2.67;;;1.30;;
49440;SDS011;35317;51.978;6.296;2023-04-24T18:12:16;3.58;;;1.40;;
49440;SDS011;35317;51.978;6.296;2023-04-24T18:17:17;2.78;;;1.55;;
49440;SDS011;35317;51.978;6.296;2023-04-24T18:22:17;5.82;;;1.80;;
49440;SDS011;35317;51.978;6.296;2023-04-24T18:27:18;3.55;;;1.58;;
49440;SDS011;35317;51.978;6.296;2023-04-24T18:32:19;3.80;;;1.40;;
49440;SDS011;35317;51.978;6.296;2023-04-24T18:37:20;4.60;;;1.55;;
49440;SDS011;35317;51.978;6.296;2023-04-24T18:42:21;5.22;;;1.40;;
49440;SDS011;35317;51.978;6.296;2023-04-24T18:47:22;4.60;;;1.77;;
49440;SDS011;35317;51.978;6.296;2023-04-24T18:52:23;4.10;;;1.60;;
49440;SDS011;35317;51.978;6.296;2023-04-24T18:57:24;6.75;;;1.58;;
49440;SDS011;35317;51.978;6.296;2023-04-24T19:02:25;3.30;;;1.50;;
49440;SDS011;35317;51.978;6.296;2023-04-24T19:07:25;5.82;;;2.00;;
49440;SDS011;35317;51.978;6.296;2023-04-24T19:12:26;9.07;;;1.95;;
49440;SDS011;35317;51.978;6.296;2023-04-24T19:17:27;4.10;;;1.70;;
49440;SDS011;35317;51.978;6.296;2023-04-24T19:22:29;4.50;;;1.75;;
49440;SDS011;35317;51.978;6.296;2023-04-24T19:27:29;8.43;;;1.95;;
49440;SDS011;35317;51.978;6.296;2023-04-24T19:32:30;5.13;;;2.08;;
49440;SDS011;35317;51.978;6.296;2023-04-24T19:37:31;6.70;;;2.13;;
49440;SDS011;35317;51.978;6.296;2023-04-24T19:42:33;6.50;;;1.83;;
49440;SDS011;35317;51.978;6.296;2023-04-24T19:47:34;8.95;;;1.55;;
49440;SDS011;35317;51.978;6.296;2023-04-24T19:52:35;5.82;;;1.85;;
49440;SDS011;35317;51.978;6.296;2023-04-24T19:57:35;3.83;;;1.88;;
49440;SDS011;35317;51.978;6.296;2023-04-24T20:02:36;7.97;;;2.55;;
49440;SDS011;35317;51.978;6.296;2023-04-24T20:07:37;7.03;;;2.28;;
49440;SDS011;35317;51.978;6.296;2023-04-24T20:12:38;7.53;;;2.42;;
49440;SDS011;35317;51.978;6.296;2023-04-24T20:17:39;11.07;;;2.05;;
49440;SDS011;35317;51.978;6.296;2023-04-24T20:22:40;7.13;;;2.08;;
49440;SDS011;35317;51.978;6.296;2023-04-24T20:27:41;5.43;;;1.70;;
49440;SDS011;35317;51.978;6.296;2023-04-24T20:32:42;7.10;;;2.10;;
49440;SDS011;35317;51.978;6.296;2023-04-24T20:37:43;9.18;;;2.67;;
49440;SDS011;35317;51.978;6.296;2023-04-24T20:42:44;8.00;;;1.88;;
49440;SDS011;35317;51.978;6.296;2023-04-24T20:47:45;2.97;;;1.45;;
49440;SDS011;35317;51.978;6.296;2023-04-24T20:52:46;7.95;;;1.80;;
49440;SDS011;35317;51.978;6.296;2023-04-24T20:57:46;7.25;;;2.17;;
49440;SDS011;35317;51.978;6.296;2023-04-24T21:02:47;7.53;;;1.83;;
49440;SDS011;35317;51.978;6.296;2023-04-24T21:07:48;4.93;;;1.70;;
49440;SDS011;35317;51.978;6.296;2023-04-24T21:12:51;8.25;;;1.42;;
49440;SDS011;35317;51.978;6.296;2023-04-24T21:17:51;4.72;;;2.08;;
49440;SDS011;35317;51.978;6.296;2023-04-24T21:22:52;3.75;;;1.60;;
49440;SDS011;35317;51.978;6.296;2023-04-24T21:27:53;7.18;;;1.80;;
49440;SDS011;35317;51.978;6.296;2023-04-24T21:32:54;3.83;;;1.23;;
49440;SDS011;35317;51.978;6.296;2023-04-24T21:37:56;5.07;;;1.58;;
49440;SDS011;35317;51.978;6.296;2023-04-24T21:42:57;3.50;;;1.42;;
49440;SDS011;35317;51.978;6.296;2023-04-24T21:47:58;3.63;;;1.48;;
49440;SDS011;35317;51.978;6.296;2023-04-24T21:53:00;6.53;;;1.65;;
49440;SDS011;35317;51.978;6.296;2023-04-24T21:58:01;3.10;;;1.70;;
49440;SDS011;35317;51.978;6.296;2023-04-24T22:03:02;4.15;;;1.30;;
49440;SDS011;35317;51.978;6.296;2023-04-24T22:08:03;4.72;;;1.70;;
49440;SDS011;35317;51.978;6.296;2023-04-24T22:13:04;2.88;;;1.55;;
49440;SDS011;35317;51.978;6.296;2023-04-24T22:18:05;6.40;;;1.13;;
49440;SDS011;35317;51.978;6.296;2023-04-24T22:23:06;3.75;;;1.42;;
49440;SDS011;35317;51.978;6.296;2023-04-24T22:28:06;3.05;;;1.58;;
49440;SDS011;35317;51.978;6.296;2023-04-24T22:33:07;2.65;;;1.13;;
49440;SDS011;35317;51.978;6.296;2023-04-24T22:38:08;3.05;;;1.25;;
49440;SDS011;35317;51.978;6.296;2023-04-24T22:43:08;4.85;;;1.13;;
49440;SDS011;35317;51.978;6.296;2023-04-24T22:48:09;2.30;;;0.98;;
49440;SDS011;35317;51.978;6.296;2023-04-24T22:53:10;2.42;;;1.20;;
49440;SDS011;35317;51.978;6.296;2023-04-24T22:58:11;3.85;;;1.10;;
49440;SDS011;35317;51.978;6.296;2023-04-24T23:03:12;1.50;;;1.00;;
49440;SDS011;35317;51.978;6.296;2023-04-24T23:08:13;3.70;;;0.90;;
49440;SDS011;35317;51.978;6.296;2023-04-24T23:13:13;1.83;;;0.80;;
49440;SDS011;35317;51.978;6.296;2023-04-24T23:18:14;2.45;;;0.82;;
49440;SDS011;35317;51.978;6.296;2023-04-24T23:23:15;3.92;;;1.20;;
49440;SDS011;35317;51.978;6.296;2023-04-24T23:28:16;1.42;;;0.88;;
49440;SDS011;35317;51.978;6.296;2023-04-24T23:33:16;1.48;;;0.70;;
49440;SDS011;35317;51.978;6.296;2023-04-24T23:38:17;1.33;;;0.70;;
49440;SDS011;35317;51.978;6.296;2023-04-24T23:43:18;2.58;;;1.30;;
49440;SDS011;35317;51.978;6.296;2023-04-24T23:48:19;1.08;;;0.70;;
49440;SDS011;35317;51.978;6.296;2023-04-24T23:53:19;5.60;;;2.13;;
49440;SDS011;35317;51.978;6.296;2023-04-24T23:58:20;1.60;;;1.00;;
